sensor_id;sensor_type;location;lat;lon;timestamp;pressure;altitude;pressure_sealevel;temperature;humidity
56719;BME280;42597;40.636;0.278;2023-04-21T00:02:04;96421.63;;;17.56;75.06
56719;BME280;42597;40.636;0.278;2023-04-21T00:04:30;96421.63;;;17.22;77.73
56719;BME280;42597;40.636;0.278;2023-04-21T00:06:57;96421.00;;;17.07;79.13
56719;BME280;42597;40.636;0.278;2023-04-21T00:09:26;96412.91;;;17.34;75.90
56719;BME280;42597;40.636;0.278;2023-04-21T00:11:52;96418.53;;;17.20;77.92
56719;BME280;42597;40.636;0.278;2023-04-21T00:14:18;96414.56;;;17.59;74.08
56719;BME280;42597;40.636;0.278;2023-04-21T00:16:44;96405.53;;;17.65;72.93
56719;BME280;42597;40.636;0.278;2023-04-21T00:19:10;96402.75;;;17.99;69.82
56719;BME280;42597;40.636;0.278;2023-04-21T00:21:38;96405.16;;;17.94;70.80
56719;BME280;42597;40.636;0.278;2023-04-21T00:24:04;96407.63;;;17.16;75.09
56719;BME280;42597;40.636;0.278;2023-04-21T00:26:30;96390.69;;;17.66;71.69
56719;BME280;42597;40.636;0.278;2023-04-21T00:28:56;96390.75;;;17.59;72.54
56719;BME280;42597;40.636;0.278;2023-04-21T00:31:21;96402.63;;;17.11;75.08
56719;BME280;42597;40.636;0.278;2023-04-21T00:33:47;96395.75;;;16.99;76.41
56719;BME280;42597;40.636;0.278;2023-04-21T00:36:13;96390.78;;;16.87;77.01
56719;BME280;42597;40.636;0.278;2023-04-21T00:38:39;96387.00;;;16.77;77.01
56719;BME280;42597;40.636;0.278;2023-04-21T00:41:04;96398.94;;;16.46;78.28
56719;BME280;42597;40.636;0.278;2023-04-21T00:43:30;96389.97;;;16.49;77.23
56719;BME280;42597;40.636;0.278;2023-04-21T00:45:56;96385.50;;;16.69;76.14
56719;BME280;42597;40.636;0.278;2023-04-21T00:48:22;96380.41;;;16.75;74.54
56719;BME280;42597;40.636;0.278;2023-04-21T00:50:47;96376.88;;;17.12;71.60
56719;BME280;42597;40.636;0.278;2023-04-21T00:53:14;96382.59;;;16.91;70.99
56719;BME280;42597;40.636;0.278;2023-04-21T00:55:40;96381.16;;;16.31;71.41
56719;BME280;42597;40.636;0.278;2023-04-21T00:58:06;96381.38;;;16.50;71.60
56719;BME280;42597;40.636;0.278;2023-04-21T01:00:31;96380.09;;;16.62;69.45
56719;BME280;42597;40.636;0.278;2023-04-21T01:02:59;96375.28;;;16.81;68.66
56719;BME280;42597;40.636;0.278;2023-04-21T01:05:25;96365.44;;;17.24;68.35
56719;BME280;42597;40.636;0.278;2023-04-21T01:07:51;96363.53;;;17.52;65.16
56719;BME280;42597;40.636;0.278;2023-04-21T01:10:17;96371.63;;;17.28;66.55
56719;BME280;42597;40.636;0.278;2023-04-21T01:12:44;96370.66;;;16.70;68.68
56719;BME280;42597;40.636;0.278;2023-04-21T01:15:14;96367.59;;;16.68;69.12
56719;BME280;42597;40.636;0.278;2023-04-21T01:17:40;96365.34;;;16.56;69.55
56719;BME280;42597;40.636;0.278;2023-04-21T01:20:08;96356.22;;;17.11;68.92
56719;BME280;42597;40.636;0.278;2023-04-21T01:22:39;96356.75;;;16.99;69.25
56719;BME280;42597;40.636;0.278;2023-04-21T01:25:06;96340.91;;;17.51;65.24
56719;BME280;42597;40.636;0.278;2023-04-21T01:27:32;96344.38;;;17.56;66.78
56719;BME280;42597;40.636;0.278;2023-04-21T01:29:57;96345.25;;;17.18;66.33
56719;BME280;42597;40.636;0.278;2023-04-21T01:32:25;96346.22;;;17.01;67.27
56719;BME280;42597;40.636;0.278;2023-04-21T01:34:52;96340.25;;;16.75;66.83
56719;BME280;42597;40.636;0.278;2023-04-21T01:37:20;96337.97;;;16.67;68.46
56719;BME280;42597;40.636;0.278;2023-04-21T01:39:48;96339.94;;;17.04;65.69
56719;BME280;42597;40.636;0.278;2023-04-21T01:42:20;96335.00;;;17.57;65.35
56719;BME280;42597;40.636;0.278;2023-04-21T01:44:46;96338.94;;;17.52;63.50
56719;BME280;42597;40.636;0.278;2023-04-21T01:47:14;96338.63;;;16.82;61.87
56719;BME280;42597;40.636;0.278;2023-04-21T01:49:39;96349.88;;;16.46;63.87
56719;BME280;42597;40.636;0.278;2023-04-21T01:52:05;96353.66;;;16.56;64.13
56719;BME280;42597;40.636;0.278;2023-04-21T01:54:30;96353.16;;;16.23;63.11
56719;BME280;42597;40.636;0.278;2023-04-21T01:56:56;96348.09;;;15.69;64.84
56719;BME280;42597;40.636;0.278;2023-04-21T01:59:22;96350.63;;;16.46;67.25
56719;BME280;42597;40.636;0.278;2023-04-21T02:01:47;96352.09;;;16.58;65.78
56719;BME280;42597;40.636;0.278;2023-04-21T02:04:14;96344.25;;;17.36;65.66
56719;BME280;42597;40.636;0.278;2023-04-21T02:06:40;96352.94;;;16.48;62.03
56719;BME280;42597;40.636;0.278;2023-04-21T02:09:05;96342.94;;;16.34;62.61
56719;BME280;42597;40.636;0.278;2023-04-21T02:11:31;96349.88;;;16.46;62.98
56719;BME280;42597;40.636;0.278;2023-04-21T02:13:57;96353.09;;;16.34;65.89
56719;BME280;42597;40.636;0.278;2023-04-21T02:16:23;96349.13;;;17.21;65.29
56719;BME280;42597;40.636;0.278;2023-04-21T02:18:52;96355.22;;;16.57;66.47
56719;BME280;42597;40.636;0.278;2023-04-21T02:21:19;96354.06;;;16.09;69.00
56719;BME280;42597;40.636;0.278;2023-04-21T02:23:45;96346.25;;;16.11;69.16
56719;BME280;42597;40.636;0.278;2023-04-21T02:26:11;96338.75;;;16.67;67.27
56719;BME280;42597;40.636;0.278;2023-04-21T02:28:37;96340.09;;;16.00;69.12
56719;BME280;42597;40.636;0.278;2023-04-21T02:31:03;96342.22;;;16.26;68.40
56719;BME280;42597;40.636;0.278;2023-04-21T02:33:29;96345.25;;;15.87;70.35
56719;BME280;42597;40.636;0.278;2023-04-21T02:35:54;96340.16;;;15.93;69.54
56719;BME280;42597;40.636;0.278;2023-04-21T02:38:20;96347.44;;;15.44;69.46
56719;BME280;42597;40.636;0.278;2023-04-21T02:40:46;96340.50;;;15.28;70.21
56719;BME280;42597;40.636;0.278;2023-04-21T02:43:15;96343.88;;;15.50;70.84
56719;BME280;42597;40.636;0.278;2023-04-21T02:45:41;96350.53;;;15.42;69.09
56719;BME280;42597;40.636;0.278;2023-04-21T02:48:07;96343.53;;;15.48;70.61
56719;BME280;42597;40.636;0.278;2023-04-21T02:50:32;96342.25;;;15.67;68.87
56719;BME280;42597;40.636;0.278;2023-04-21T02:52:58;96343.28;;;15.14;70.63
56719;BME280;42597;40.636;0.278;2023-04-21T02:55:24;96338.75;;;15.63;71.68
56719;BME280;42597;40.636;0.278;2023-04-21T02:57:50;96337.81;;;15.95;68.79
56719;BME280;42597;40.636;0.278;2023-04-21T03:00:16;96335.44;;;16.04;69.81
56719;BME280;42597;40.636;0.278;2023-04-21T03:02:42;96346.59;;;15.54;68.51
56719;BME280;42597;40.636;0.278;2023-04-21T03:05:09;96341.94;;;15.51;69.10
56719;BME280;42597;40.636;0.278;2023-04-21T03:07:34;96343.41;;;15.73;67.62
56719;BME280;42597;40.636;0.278;2023-04-21T03:10:01;96336.03;;;16.22;68.42
56719;BME280;42597;40.636;0.278;2023-04-21T03:12:26;96334.00;;;16.78;68.36
56719;BME280;42597;40.636;0.278;2023-04-21T03:14:52;96329.00;;;16.28;64.85
56719;BME280;42597;40.636;0.278;2023-04-21T03:17:17;96343.25;;;15.95;63.91
56719;BME280;42597;40.636;0.278;2023-04-21T03:19:43;96332.88;;;16.27;67.60
56719;BME280;42597;40.636;0.278;2023-04-21T03:22:08;96344.88;;;15.85;63.08
56719;BME280;42597;40.636;0.278;2023-04-21T03:24:34;96343.78;;;16.27;63.34
56719;BME280;42597;40.636;0.278;2023-04-21T03:26:59;96328.28;;;17.00;66.61
56719;BME280;42597;40.636;0.278;2023-04-21T03:29:26;96327.09;;;17.35;65.55
56719;BME280;42597;40.636;0.278;2023-04-21T03:31:52;96338.91;;;16.04;64.22
56719;BME280;42597;40.636;0.278;2023-04-21T03:34:17;96328.56;;;16.75;67.14
56719;BME280;42597;40.636;0.278;2023-04-21T03:36:43;96325.81;;;16.78;63.20
56719;BME280;42597;40.636;0.278;2023-04-21T03:39:08;96329.34;;;16.75;63.11
56719;BME280;42597;40.636;0.278;2023-04-21T03:41:34;96332.03;;;16.38;64.08
56719;BME280;42597;40.636;0.278;2023-04-21T03:44:00;96345.13;;;15.39;63.78
56719;BME280;42597;40.636;0.278;2023-04-21T03:46:25;96336.44;;;15.65;64.20
56719;BME280;42597;40.636;0.278;2023-04-21T03:48:51;96339.63;;;15.49;61.46
56719;BME280;42597;40.636;0.278;2023-04-21T03:51:17;96340.66;;;14.78;62.89
56719;BME280;42597;40.636;0.278;2023-04-21T03:53:42;96349.78;;;15.35;66.68
56719;BME280;42597;40.636;0.278;2023-04-21T03:56:08;96343.78;;;14.80;62.97
56719;BME280;42597;40.636;0.278;2023-04-21T03:58:34;96342.00;;;15.40;61.94
56719;BME280;42597;40.636;0.278;2023-04-21T04:01:00;96332.59;;;16.60;66.26
56719;BME280;42597;40.636;0.278;2023-04-21T04:03:26;96340.25;;;16.72;63.51
56719;BME280;42597;40.636;0.278;2023-04-21T04:05:52;96329.78;;;16.25;60.31
56719;BME280;42597;40.636;0.278;2023-04-21T04:08:17;96332.84;;;16.31;64.21
56719;BME280;42597;40.636;0.278;2023-04-21T04:10:43;96337.03;;;15.24;65.49
56719;BME280;42597;40.636;0.278;2023-04-21T04:13:09;96327.44;;;16.24;66.77
56719;BME280;42597;40.636;0.278;2023-04-21T04:15:34;96338.09;;;15.48;62.74
56719;BME280;42597;40.636;0.278;2023-04-21T04:18:00;96326.38;;;16.14;67.15
56719;BME280;42597;40.636;0.278;2023-04-21T04:20:26;96339.13;;;14.85;63.41
56719;BME280;42597;40.636;0.278;2023-04-21T04:22:52;96337.16;;;14.96;65.91
56719;BME280;42597;40.636;0.278;2023-04-21T04:25:18;96340.09;;;16.00;62.52
56719;BME280;42597;40.636;0.278;2023-04-21T04:27:43;96327.13;;;15.59;62.70
56719;BME280;42597;40.636;0.278;2023-04-21T04:30:11;96321.97;;;16.27;64.94
56719;BME280;42597;40.636;0.278;2023-04-21T04:32:37;96321.84;;;16.42;63.01
56719;BME280;42597;40.636;0.278;2023-04-21T04:35:07;96327.75;;;17.12;63.96
56719;BME280;42597;40.636;0.278;2023-04-21T04:37:36;96331.84;;;16.56;60.66
56719;BME280;42597;40.636;0.278;2023-04-21T04:40:03;96334.75;;;15.16;60.98
56719;BME280;42597;40.636;0.278;2023-04-21T04:42:31;96350.81;;;14.46;62.66
56719;BME280;42597;40.636;0.278;2023-04-21T04:44:58;96332.91;;;14.77;63.26
56719;BME280;42597;40.636;0.278;2023-04-21T04:47:26;96339.88;;;14.89;61.89
56719;BME280;42597;40.636;0.278;2023-04-21T04:49:51;96334.59;;;15.48;61.50
56719;BME280;42597;40.636;0.278;2023-04-21T04:52:17;96334.78;;;14.94;61.45
56719;BME280;42597;40.636;0.278;2023-04-21T04:54:43;96343.81;;;14.73;62.49
56719;BME280;42597;40.636;0.278;2023-04-21T04:57:09;96346.53;;;14.45;65.58
56719;BME280;42597;40.636;0.278;2023-04-21T04:59:35;96351.59;;;14.28;63.12
56719;BME280;42597;40.636;0.278;2023-04-21T05:02:01;96341.91;;;15.58;67.79
56719;BME280;42597;40.636;0.278;2023-04-21T05:04:27;96336.81;;;15.67;65.63
56719;BME280;42597;40.636;0.278;2023-04-21T05:06:53;96342.50;;;15.14;61.07
56719;BME280;42597;40.636;0.278;2023-04-21T05:09:19;96344.47;;;15.87;63.85
56719;BME280;42597;40.636;0.278;2023-04-21T05:11:45;96350.78;;;15.76;61.40
56719;BME280;42597;40.636;0.278;2023-04-21T05:14:10;96358.59;;;14.51;62.34
56719;BME280;42597;40.636;0.278;2023-04-21T05:16:36;96354.59;;;14.95;62.81
56719;BME280;42597;40.636;0.278;2023-04-21T05:19:03;96350.78;;;13.74;65.29
56719;BME280;42597;40.636;0.278;2023-04-21T05:21:29;96353.16;;;14.08;68.41
56719;BME280;42597;40.636;0.278;2023-04-21T05:23:58;96357.81;;;15.63;65.15
56719;BME280;42597;40.636;0.278;2023-04-21T05:26:26;96361.53;;;15.24;64.47
56719;BME280;42597;40.636;0.278;2023-04-21T05:28:53;96356.94;;;15.00;64.12
56719;BME280;42597;40.636;0.278;2023-04-21T05:31:19;96370.72;;;15.52;64.10
56719;BME280;42597;40.636;0.278;2023-04-21T05:33:45;96365.06;;;15.11;62.94
56719;BME280;42597;40.636;0.278;2023-04-21T05:36:10;96367.09;;;14.81;64.36
56719;BME280;42597;40.636;0.278;2023-04-21T05:38:37;96370.22;;;14.62;65.09
56719;BME280;42597;40.636;0.278;2023-04-21T05:41:03;96362.41;;;13.68;66.22
56719;BME280;42597;40.636;0.278;2023-04-21T05:43:29;96367.88;;;14.75;67.04
56719;BME280;42597;40.636;0.278;2023-04-21T05:45:58;96385.00;;;14.65;61.36
56719;BME280;42597;40.636;0.278;2023-04-21T05:48:24;96381.09;;;14.41;63.69
56719;BME280;42597;40.636;0.278;2023-04-21T05:50:50;96383.44;;;14.56;69.41
56719;BME280;42597;40.636;0.278;2023-04-21T05:53:16;96386.53;;;14.55;62.58
56719;BME280;42597;40.636;0.278;2023-04-21T05:55:42;96386.34;;;15.41;64.96
56719;BME280;42597;40.636;0.278;2023-04-21T05:58:08;96394.09;;;15.46;62.97
56719;BME280;42597;40.636;0.278;2023-04-21T06:00:33;96400.31;;;15.43;60.33
56719;BME280;42597;40.636;0.278;2023-04-21T06:02:59;96412.69;;;15.58;64.54
56719;BME280;42597;40.636;0.278;2023-04-21T06:05:25;96416.63;;;15.46;65.01
56719;BME280;42597;40.636;0.278;2023-04-21T06:07:51;96419.13;;;14.91;61.96
56719;BME280;42597;40.636;0.278;2023-04-21T06:10:17;96389.22;;;14.05;65.73
56719;BME280;42597;40.636;0.278;2023-04-21T06:12:43;96385.69;;;13.87;66.09
56719;BME280;42597;40.636;0.278;2023-04-21T06:15:09;96393.91;;;14.72;66.69
56719;BME280;42597;40.636;0.278;2023-04-21T06:17:34;96399.72;;;14.96;62.70
56719;BME280;42597;40.636;0.278;2023-04-21T06:20:00;96392.69;;;13.95;65.53
56719;BME280;42597;40.636;0.278;2023-04-21T06:22:27;96396.59;;;14.83;66.38
56719;BME280;42597;40.636;0.278;2023-04-21T06:24:52;96391.25;;;16.34;66.42
56719;BME280;42597;40.636;0.278;2023-04-21T06:27:18;96389.50;;;15.28;64.46
56719;BME280;42597;40.636;0.278;2023-04-21T06:29:44;96398.00;;;15.41;63.48
56719;BME280;42597;40.636;0.278;2023-04-21T06:32:10;96404.78;;;14.79;63.62
56719;BME280;42597;40.636;0.278;2023-04-21T06:34:37;96409.78;;;15.06;64.94
56719;BME280;42597;40.636;0.278;2023-04-21T06:37:03;96398.88;;;15.06;64.16
56719;BME280;42597;40.636;0.278;2023-04-21T06:39:29;96396.56;;;15.01;64.80
56719;BME280;42597;40.636;0.278;2023-04-21T06:41:55;96403.50;;;15.23;66.44
56719;BME280;42597;40.636;0.278;2023-04-21T06:44:22;96397.13;;;15.62;66.56
56719;BME280;42597;40.636;0.278;2023-04-21T06:46:48;96395.44;;;15.90;67.78
56719;BME280;42597;40.636;0.278;2023-04-21T06:49:14;96387.50;;;16.13;67.63
56719;BME280;42597;40.636;0.278;2023-04-21T06:51:40;96404.56;;;15.51;70.78
56719;BME280;42597;40.636;0.278;2023-04-21T06:54:05;96405.81;;;15.36;67.78
56719;BME280;42597;40.636;0.278;2023-04-21T06:56:31;96395.63;;;15.47;66.79
56719;BME280;42597;40.636;0.278;2023-04-21T06:58:57;96399.63;;;15.24;66.76
56719;BME280;42597;40.636;0.278;2023-04-21T07:01:23;96397.59;;;15.43;66.89
56719;BME280;42597;40.636;0.278;2023-04-21T07:03:49;96407.28;;;15.51;70.77
56719;BME280;42597;40.636;0.278;2023-04-21T07:06:15;96393.19;;;15.77;74.20
56719;BME280;42597;40.636;0.278;2023-04-21T07:08:41;96385.84;;;16.26;72.72
56719;BME280;42597;40.636;0.278;2023-04-21T07:11:07;96381.25;;;17.06;66.72
56719;BME280;42597;40.636;0.278;2023-04-21T07:13:33;96369.91;;;17.42;64.49
56719;BME280;42597;40.636;0.278;2023-04-21T07:15:58;96381.56;;;16.77;72.49
56719;BME280;42597;40.636;0.278;2023-04-21T07:18:24;96391.13;;;16.48;77.63
56719;BME280;42597;40.636;0.278;2023-04-21T07:20:50;96392.41;;;16.36;80.25
56719;BME280;42597;40.636;0.278;2023-04-21T07:23:15;96394.91;;;16.61;79.33
56719;BME280;42597;40.636;0.278;2023-04-21T07:25:41;96394.22;;;16.50;81.00
56719;BME280;42597;40.636;0.278;2023-04-21T07:28:07;96399.50;;;16.23;82.68
56719;BME280;42597;40.636;0.278;2023-04-21T07:30:33;96400.53;;;16.40;81.83
56719;BME280;42597;40.636;0.278;2023-04-21T07:32:58;96401.34;;;16.37;83.33
56719;BME280;42597;40.636;0.278;2023-04-21T07:35:25;96398.28;;;16.27;83.17
56719;BME280;42597;40.636;0.278;2023-04-21T07:37:51;96393.06;;;16.51;82.82
56719;BME280;42597;40.636;0.278;2023-04-21T07:40:17;96382.44;;;16.60;82.47
56719;BME280;42597;40.636;0.278;2023-04-21T07:42:42;96385.75;;;16.41;83.29
56719;BME280;42597;40.636;0.278;2023-04-21T07:45:08;96384.19;;;16.40;82.91
56719;BME280;42597;40.636;0.278;2023-04-21T07:47:34;96382.88;;;16.55;82.87
56719;BME280;42597;40.636;0.278;2023-04-21T07:50:00;96385.34;;;16.87;81.04
56719;BME280;42597;40.636;0.278;2023-04-21T07:52:26;96384.47;;;16.97;80.36
56719;BME280;42597;40.636;0.278;2023-04-21T07:54:52;96393.78;;;17.00;80.49
56719;BME280;42597;40.636;0.278;2023-04-21T07:57:17;96380.53;;;17.02;80.37
56719;BME280;42597;40.636;0.278;2023-04-21T07:59:43;96385.88;;;17.13;80.15
56719;BME280;42597;40.636;0.278;2023-04-21T08:02:09;96383.41;;;17.22;79.88
56719;BME280;42597;40.636;0.278;2023-04-21T08:04:35;96377.63;;;17.50;78.59
56719;BME280;42597;40.636;0.278;2023-04-21T08:07:01;96394.66;;;16.93;81.47
56719;BME280;42597;40.636;0.278;2023-04-21T08:09:27;96396.09;;;17.05;80.92
56719;BME280;42597;40.636;0.278;2023-04-21T08:11:52;96389.91;;;17.01;82.15
56719;BME280;42597;40.636;0.278;2023-04-21T08:14:20;96395.47;;;17.24;80.66
56719;BME280;42597;40.636;0.278;2023-04-21T08:16:46;96401.38;;;17.19;80.93
56719;BME280;42597;40.636;0.278;2023-04-21T08:19:12;96397.22;;;17.42;80.81
56719;BME280;42597;40.636;0.278;2023-04-21T08:21:38;96398.84;;;17.36;80.79
56719;BME280;42597;40.636;0.278;2023-04-21T08:24:04;96409.50;;;17.26;81.93
56719;BME280;42597;40.636;0.278;2023-04-21T08:26:30;96403.44;;;17.46;80.60
56719;BME280;42597;40.636;0.278;2023-04-21T08:28:58;96400.16;;;17.58;79.62
56719;BME280;42597;40.636;0.278;2023-04-21T08:31:25;96408.81;;;17.53;80.23
56719;BME280;42597;40.636;0.278;2023-04-21T08:33:52;96406.47;;;17.51;80.04
56719;BME280;42597;40.636;0.278;2023-04-21T08:36:18;96403.81;;;17.79;78.71
56719;BME280;42597;40.636;0.278;2023-04-21T08:38:44;96410.16;;;17.68;79.49
56719;BME280;42597;40.636;0.278;2023-04-21T08:41:12;96411.09;;;17.89;78.09
56719;BME280;42597;40.636;0.278;2023-04-21T08:43:37;96407.56;;;17.88;78.15
56719;BME280;42597;40.636;0.278;2023-04-21T08:46:07;96421.97;;;17.62;79.50
56719;BME280;42597;40.636;0.278;2023-04-21T08:48:37;96429.66;;;17.70;78.92
56719;BME280;42597;40.636;0.278;2023-04-21T08:51:05;96428.44;;;18.06;78.39
56719;BME280;42597;40.636;0.278;2023-04-21T08:53:32;96426.63;;;17.95;77.45
56719;BME280;42597;40.636;0.278;2023-04-21T08:55:58;96425.88;;;17.91;78.41
56719;BME280;42597;40.636;0.278;2023-04-21T08:58:23;96441.66;;;17.46;80.48
56719;BME280;42597;40.636;0.278;2023-04-21T09:00:49;96436.66;;;17.71;79.22
56719;BME280;42597;40.636;0.278;2023-04-21T09:03:22;96435.16;;;18.01;78.11
56719;BME280;42597;40.636;0.278;2023-04-21T09:06:00;96445.63;;;18.06;77.13
56719;BME280;42597;40.636;0.278;2023-04-21T09:08:27;96443.28;;;18.32;76.91
56719;BME280;42597;40.636;0.278;2023-04-21T09:10:55;96435.09;;;18.32;77.62
56719;BME280;42597;40.636;0.278;2023-04-21T09:13:28;96447.25;;;18.00;78.53
56719;BME280;42597;40.636;0.278;2023-04-21T09:15:54;96439.22;;;18.67;75.97
56719;BME280;42597;40.636;0.278;2023-04-21T09:18:22;96447.97;;;18.58;76.04
56719;BME280;42597;40.636;0.278;2023-04-21T09:20:50;96456.13;;;18.35;77.24
56719;BME280;42597;40.636;0.278;2023-04-21T09:23:16;96452.63;;;18.07;77.71
56719;BME280;42597;40.636;0.278;2023-04-21T09:25:43;96453.88;;;18.30;77.55
56719;BME280;42597;40.636;0.278;2023-04-21T09:28:11;96452.47;;;18.68;76.60
56719;BME280;42597;40.636;0.278;2023-04-21T09:30:39;96454.16;;;18.62;76.29
56719;BME280;42597;40.636;0.278;2023-04-21T09:33:05;96455.38;;;18.34;77.63
56719;BME280;42597;40.636;0.278;2023-04-21T09:35:35;96458.06;;;18.61;77.01
56719;BME280;42597;40.636;0.278;2023-04-21T09:38:03;96456.81;;;18.93;75.55
56719;BME280;42597;40.636;0.278;2023-04-21T09:40:29;96458.31;;;18.74;75.91
56719;BME280;42597;40.636;0.278;2023-04-21T09:42:55;96462.09;;;18.53;77.78
56719;BME280;42597;40.636;0.278;2023-04-21T09:45:28;96454.50;;;18.64;77.72
56719;BME280;42597;40.636;0.278;2023-04-21T09:47:56;96459.91;;;18.71;76.51
56719;BME280;42597;40.636;0.278;2023-04-21T09:50:23;96454.59;;;18.84;75.84
56719;BME280;42597;40.636;0.278;2023-04-21T09:52:50;96451.69;;;18.95;75.45
56719;BME280;42597;40.636;0.278;2023-04-21T09:55:17;96446.88;;;19.03;74.81
56719;BME280;42597;40.636;0.278;2023-04-21T09:57:46;96447.31;;;19.41;74.32
56719;BME280;42597;40.636;0.278;2023-04-21T10:00:13;96445.78;;;18.96;74.60
56719;BME280;42597;40.636;0.278;2023-04-21T10:02:45;96447.84;;;19.12;74.41
56719;BME280;42597;40.636;0.278;2023-04-21T10:05:12;96452.41;;;18.99;74.23
56719;BME280;42597;40.636;0.278;2023-04-21T10:07:38;96455.47;;;19.24;73.33
56719;BME280;42597;40.636;0.278;2023-04-21T10:10:07;96451.41;;;19.33;73.34
56719;BME280;42597;40.636;0.278;2023-04-21T10:12:34;96443.47;;;19.18;74.47
56719;BME280;42597;40.636;0.278;2023-04-21T10:15:03;96450.25;;;19.10;74.59
56719;BME280;42597;40.636;0.278;2023-04-21T10:17:33;96461.91;;;19.14;74.77
56719;BME280;42597;40.636;0.278;2023-04-21T10:19:59;96455.13;;;19.22;74.65
56719;BME280;42597;40.636;0.278;2023-04-21T10:22:30;96467.38;;;19.38;73.67
56719;BME280;42597;40.636;0.278;2023-04-21T10:24:58;96465.59;;;19.28;74.23
56719;BME280;42597;40.636;0.278;2023-04-21T10:27:39;96454.50;;;19.35;74.46
56719;BME280;42597;40.636;0.278;2023-04-21T10:30:24;96464.28;;;19.12;74.81
56719;BME280;42597;40.636;0.278;2023-04-21T10:33:04;96453.47;;;19.05;75.75
56719;BME280;42597;40.636;0.278;2023-04-21T10:35:59;96457.31;;;19.51;73.61
56719;BME280;42597;40.636;0.278;2023-04-21T10:38:39;96459.41;;;19.23;74.46
56719;BME280;42597;40.636;0.278;2023-04-21T10:41:27;96460.50;;;19.06;75.16
56719;BME280;42597;40.636;0.278;2023-04-21T10:44:00;96456.94;;;19.29;75.73
56719;BME280;42597;40.636;0.278;2023-04-21T10:46:54;96458.13;;;19.71;73.10
56719;BME280;42597;40.636;0.278;2023-04-21T10:49:28;96459.63;;;19.53;73.97
56719;BME280;42597;40.636;0.278;2023-04-21T10:54:28;96456.91;;;19.72;72.99
56719;BME280;42597;40.636;0.278;2023-04-21T10:56:57;96462.22;;;19.40;74.08
56719;BME280;42597;40.636;0.278;2023-04-21T10:59:24;96454.63;;;19.71;72.85
56719;BME280;42597;40.636;0.278;2023-04-21T11:01:50;96469.31;;;19.57;73.42
56719;BME280;42597;40.636;0.278;2023-04-21T11:04:18;96463.22;;;19.30;74.24
56719;BME280;42597;40.636;0.278;2023-04-21T11:07:09;96460.41;;;19.93;71.53
56719;BME280;42597;40.636;0.278;2023-04-21T11:09:36;96466.09;;;19.42;73.82
56719;BME280;42597;40.636;0.278;2023-04-21T11:12:07;96461.84;;;19.81;72.56
56719;BME280;42597;40.636;0.278;2023-04-21T11:14:36;96461.09;;;19.37;74.55
56719;BME280;42597;40.636;0.278;2023-04-21T11:17:03;96468.84;;;19.42;74.14
56719;BME280;42597;40.636;0.278;2023-04-21T11:19:32;96461.66;;;19.48;73.67
56719;BME280;42597;40.636;0.278;2023-04-21T11:21:58;96462.66;;;19.58;74.15
56719;BME280;42597;40.636;0.278;2023-04-21T11:24:23;96462.53;;;19.65;73.95
56719;BME280;42597;40.636;0.278;2023-04-21T11:26:50;96456.84;;;19.76;72.85
56719;BME280;42597;40.636;0.278;2023-04-21T11:29:16;96462.53;;;19.65;72.81
56719;BME280;42597;40.636;0.278;2023-04-21T11:31:43;96459.84;;;19.82;72.48
56719;BME280;42597;40.636;0.278;2023-04-21T11:34:11;96456.50;;;20.30;70.91
56719;BME280;42597;40.636;0.278;2023-04-21T11:36:41;96459.78;;;20.21;70.62
56719;BME280;42597;40.636;0.278;2023-04-21T11:39:11;96466.66;;;20.30;70.29
56719;BME280;42597;40.636;0.278;2023-04-21T11:41:39;96461.09;;;19.57;73.50
56719;BME280;42597;40.636;0.278;2023-04-21T11:44:12;96455.72;;;19.73;74.18
56719;BME280;42597;40.636;0.278;2023-04-21T11:46:45;96452.38;;;19.66;74.16
56719;BME280;42597;40.636;0.278;2023-04-21T11:49:13;96459.25;;;19.74;73.37
56719;BME280;42597;40.636;0.278;2023-04-21T11:51:39;96453.03;;;19.90;72.80
56719;BME280;42597;40.636;0.278;2023-04-21T11:54:08;96459.16;;;19.78;73.45
56719;BME280;42597;40.636;0.278;2023-04-21T11:56:40;96453.63;;;20.17;72.06
56719;BME280;42597;40.636;0.278;2023-04-21T11:59:10;96450.28;;;19.90;72.72
56719;BME280;42597;40.636;0.278;2023-04-21T12:01:47;96451.09;;;20.43;70.90
56719;BME280;42597;40.636;0.278;2023-04-21T12:04:21;96447.66;;;20.39;70.79
56719;BME280;42597;40.636;0.278;2023-04-21T12:06:59;96457.06;;;20.21;71.71
56719;BME280;42597;40.636;0.278;2023-04-21T12:09:26;96452.13;;;19.77;73.22
56719;BME280;42597;40.636;0.278;2023-04-21T12:11:54;96450.56;;;20.32;72.33
56719;BME280;42597;40.636;0.278;2023-04-21T12:14:22;96453.75;;;20.30;71.26
56719;BME280;42597;40.636;0.278;2023-04-21T12:16:50;96454.00;;;20.00;72.25
56719;BME280;42597;40.636;0.278;2023-04-21T12:19:35;96445.75;;;20.19;71.99
56719;BME280;42597;40.636;0.278;2023-04-21T12:22:15;96457.53;;;19.60;74.56
56719;BME280;42597;40.636;0.278;2023-04-21T12:24:44;96460.97;;;20.04;73.10
56719;BME280;42597;40.636;0.278;2023-04-21T12:27:10;96446.97;;;20.35;70.87
56719;BME280;42597;40.636;0.278;2023-04-21T12:29:36;96444.97;;;20.55;69.74
56719;BME280;42597;40.636;0.278;2023-04-21T12:32:07;96451.44;;;20.45;70.16
56719;BME280;42597;40.636;0.278;2023-04-21T12:34:33;96450.09;;;20.69;69.82
56719;BME280;42597;40.636;0.278;2023-04-21T12:36:59;96442.09;;;20.42;70.10
56719;BME280;42597;40.636;0.278;2023-04-21T12:39:25;96447.81;;;20.32;70.12
56719;BME280;42597;40.636;0.278;2023-04-21T12:41:51;96448.63;;;20.49;70.42
56719;BME280;42597;40.636;0.278;2023-04-21T12:44:17;96445.03;;;20.84;69.10
56719;BME280;42597;40.636;0.278;2023-04-21T12:46:43;96449.06;;;20.80;68.61
56719;BME280;42597;40.636;0.278;2023-04-21T12:49:09;96451.31;;;20.52;69.12
56719;BME280;42597;40.636;0.278;2023-04-21T12:51:36;96453.38;;;20.64;68.59
56719;BME280;42597;40.636;0.278;2023-04-21T12:54:01;96450.78;;;20.74;68.50
56719;BME280;42597;40.636;0.278;2023-04-21T12:56:27;96445.09;;;20.97;66.79
56719;BME280;42597;40.636;0.278;2023-04-21T12:58:54;96450.94;;;20.99;66.67
56719;BME280;42597;40.636;0.278;2023-04-21T13:01:21;96457.72;;;20.78;66.95
56719;BME280;42597;40.636;0.278;2023-04-21T13:03:46;96450.88;;;20.70;67.00